Date,TemperatureHighF,TemperatureAvgF,TemperatureLowF,DewpointHighF,DewpointAvgF,DewpointLowF,HumidityHigh,HumidityAvg,HumidityLow,PressureMaxIn,PressureMinIn,WindSpeedMaxMPH,WindSpeedAvgMPH,GustSpeedMaxMPH,PrecipitationSumIn
2013-9-1,90.7,76.7,65.2,69.9,63.3,56.9,89,67,39,29.19,29.03,11,3,13,0.00
2013-9-2,82.6,66.6,56.5,56.9,53.9,48.9,85,67,40,29.31,29.18,10,1,12,0.00
2013-9-3,84.8,63.4,48.2,55.9,50.0,43.3,86,66,36,29.37,29.29,11,0,11,0.00
2013-9-4,97.0,72.7,54.2,66.0,56.9,47.4,79,61,39,29.40,29.31,11,2,11,0.00
2013-9-5,97.7,78.5,64.4,69.1,63.4,57.3,80,63,41,29.45,29.37,10,2,13,0.00
2013-9-6,97.6,76.3,62.6,63.6,59.6,56.3,80,60,33,29.42,29.23,12,3,16,0.00
2013-9-7,103.0,81.4,65.9,70.5,63.9,56.8,76,59,37,29.24,29.11,12,3,12,0.00
2013-9-8,88.4,76.1,71.3,70.5,66.4,64.4,81,73,56,29.25,29.13,13,6,14,0.00
2013-9-9,105.0,83.9,68.8,70.7,66.1,61.1,90,63,30,29.14,29.05,11,2,14,0.00
2013-9-10,106.0,85.3,70.9,65.1,61.3,58.0,67,49,28,29.25,29.15,13,4,13,0.00
2013-9-11,87.8,75.7,67.3,66.7,62.7,59.0,79,66,47,29.35,29.25,11,4,13,0.00
2013-9-12,91.6,68.7,57.8,59.0,51.2,44.8,79,58,27,29.42,29.30,11,1,11,0.00
2013-9-13,97.2,61.2,47.7,49.4,43.8,39.7,80,58,21,29.50,29.38,10,1,13,0.00
2013-9-14,78.1,60.6,46.1,45.8,41.1,37.0,73,53,30,29.42,29.21,11,1,13,0.00
2013-9-15,64.6,59.0,53.6,58.4,51.7,45.0,87,78,57,29.47,29.18,29,1,29,0.08
2013-9-16,90.4,60.0,51.1,56.0,49.7,44.0,87,72,34,29.63,29.48,10,1,14,0.00
2013-9-17,64.8,58.1,50.0,57.5,50.6,44.1,82,76,68,29.54,29.30,10,0,10,0.00
2013-9-18,99.2,72.3,60.8,71.2,62.5,56.8,90,74,40,29.29,29.06,11,2,15,0.00
2013-9-19,88.7,74.6,64.8,68.0,64.4,60.1,89,73,50,29.11,28.97,12,2,14,0.43
2013-9-20,65.7,60.2,52.4,62.5,52.8,45.6,90,78,66,29.20,29.09,8,0,13,0.00
2013-9-21,91.8,57.3,44.6,54.0,45.6,40.4,86,69,31,29.26,29.17,11,1,13,0.00
2013-9-22,97.0,60.5,45.2,57.4,46.7,39.7,86,65,30,29.29,29.19,10,1,13,0.00
2013-9-23,92.5,61.8,49.1,54.6,46.9,42.8,80,61,31,29.29,29.18,11,2,12,0.00
2013-9-24,74.0,61.2,50.0,56.3,49.1,43.5,80,66,51,29.23,29.14,11,2,13,0.00
2013-9-25,96.5,64.5,51.5,55.8,50.0,45.5,82,63,30,29.23,29.14,11,1,16,0.00
2013-9-26,93.2,68.6,53.8,60.6,53.8,47.3,81,63,34,29.26,29.18,12,2,12,0.00
2013-9-27,83.3,70.3,58.5,63.8,56.0,51.7,80,63,46,29.31,29.20,11,1,11,0.00
2013-9-28,70.9,62.1,50.2,62.0,54.4,46.5,89,77,61,29.29,29.10,11,1,18,0.22
2013-9-29,76.3,58.7,44.6,52.8,45.0,41.0,88,66,33,29.35,29.22,11,2,13,0.00
2013-9-30,87.1,64.0,47.5,53.1,45.9,40.9,80,57,32,29.22,29.04,10,1,13,0.00